sensor_id;sensor_type;location;lat;lon;timestamp;P1;durP1;ratioP1;P2;durP2;ratioP2
56760;SDS011;42633;44.494;11.356;2023-05-29T00:00:36;14.35;;;10.75;;
56760;SDS011;42633;44.494;11.356;2023-05-29T00:03:44;16.10;;;11.65;;
56760;SDS011;42633;44.494;11.356;2023-05-29T00:06:48;15.98;;;10.85;;
56760;SDS011;42633;44.494;11.356;2023-05-29T00:10:00;12.85;;;10.13;;
56760;SDS011;42633;44.494;11.356;2023-05-29T00:13:11;18.30;;;11.43;;
56760;SDS011;42633;44.494;11.356;2023-05-29T00:16:15;18.30;;;11.02;;
56760;SDS011;42633;44.494;11.356;2023-05-29T00:19:22;15.15;;;10.30;;
56760;SDS011;42633;44.494;11.356;2023-05-29T00:22:28;15.30;;;11.25;;
56760;SDS011;42633;44.494;11.356;2023-05-29T00:25:36;21.70;;;11.23;;
56760;SDS011;42633;44.494;11.356;2023-05-29T00:28:44;17.38;;;11.35;;
56760;SDS011;42633;44.494;11.356;2023-05-29T00:31:52;13.88;;;10.57;;
56760;SDS011;42633;44.494;11.356;2023-05-29T00:34:58;13.98;;;10.52;;
56760;SDS011;42633;44.494;11.356;2023-05-29T00:38:03;16.00;;;11.00;;
56760;SDS011;42633;44.494;11.356;2023-05-29T00:41:14;17.02;;;11.35;;
56760;SDS011;42633;44.494;11.356;2023-05-29T00:44:21;14.95;;;11.07;;
56760;SDS011;42633;44.494;11.356;2023-05-29T00:47:27;16.45;;;10.80;;
56760;SDS011;42633;44.494;11.356;2023-05-29T00:50:31;15.27;;;10.55;;
56760;SDS011;42633;44.494;11.356;2023-05-29T00:53:45;14.57;;;11.02;;
56760;SDS011;42633;44.494;11.356;2023-05-29T00:56:51;16.75;;;11.45;;
56760;SDS011;42633;44.494;11.356;2023-05-29T00:59:57;12.20;;;10.90;;
56760;SDS011;42633;44.494;11.356;2023-05-29T01:03:03;13.07;;;10.87;;
56760;SDS011;42633;44.494;11.356;2023-05-29T01:06:17;15.20;;;11.90;;
56760;SDS011;42633;44.494;11.356;2023-05-29T01:09:23;14.00;;;11.52;;
56760;SDS011;42633;44.494;11.356;2023-05-29T01:16:04;15.73;;;11.90;;
56760;SDS011;42633;44.494;11.356;2023-05-29T01:20:05;20.52;;;12.05;;
56760;SDS011;42633;44.494;11.356;2023-05-29T01:29:48;15.70;;;11.27;;
56760;SDS011;42633;44.494;11.356;2023-05-29T01:32:59;14.68;;;11.27;;
56760;SDS011;42633;44.494;11.356;2023-05-29T01:36:04;16.70;;;11.27;;
56760;SDS011;42633;44.494;11.356;2023-05-29T01:39:10;11.70;;;10.23;;
56760;SDS011;42633;44.494;11.356;2023-05-29T01:42:17;15.48;;;11.93;;
56760;SDS011;42633;44.494;11.356;2023-05-29T01:45:22;14.07;;;10.90;;
56760;SDS011;42633;44.494;11.356;2023-05-29T01:48:26;13.07;;;11.02;;
56760;SDS011;42633;44.494;11.356;2023-05-29T01:51:34;13.35;;;10.10;;
56760;SDS011;42633;44.494;11.356;2023-05-29T01:54:42;14.40;;;10.80;;
56760;SDS011;42633;44.494;11.356;2023-05-29T02:00:54;16.27;;;10.50;;
56760;SDS011;42633;44.494;11.356;2023-05-29T02:07:04;13.57;;;9.50;;
56760;SDS011;42633;44.494;11.356;2023-05-29T02:10:09;16.40;;;10.25;;
56760;SDS011;42633;44.494;11.356;2023-05-29T02:13:14;15.88;;;9.95;;
56760;SDS011;42633;44.494;11.356;2023-05-29T02:16:18;12.77;;;10.27;;
56760;SDS011;42633;44.494;11.356;2023-05-29T02:19:24;12.15;;;10.10;;
56760;SDS011;42633;44.494;11.356;2023-05-29T02:22:31;14.95;;;10.68;;
56760;SDS011;42633;44.494;11.356;2023-05-29T02:25:36;14.23;;;9.63;;
56760;SDS011;42633;44.494;11.356;2023-05-29T02:28:41;15.25;;;9.93;;
56760;SDS011;42633;44.494;11.356;2023-05-29T02:31:46;17.13;;;10.80;;
56760;SDS011;42633;44.494;11.356;2023-05-29T02:34:57;13.73;;;10.85;;
56760;SDS011;42633;44.494;11.356;2023-05-29T02:38:01;13.27;;;9.73;;
56760;SDS011;42633;44.494;11.356;2023-05-29T02:41:05;18.50;;;10.52;;
56760;SDS011;42633;44.494;11.356;2023-05-29T02:44:10;14.07;;;10.00;;
56760;SDS011;42633;44.494;11.356;2023-05-29T02:47:14;14.50;;;10.55;;
56760;SDS011;42633;44.494;11.356;2023-05-29T02:50:19;17.98;;;10.23;;
56760;SDS011;42633;44.494;11.356;2023-05-29T02:53:23;13.57;;;11.10;;
56760;SDS011;42633;44.494;11.356;2023-05-29T02:56:28;13.43;;;10.60;;
56760;SDS011;42633;44.494;11.356;2023-05-29T02:59:32;14.98;;;9.88;;
56760;SDS011;42633;44.494;11.356;2023-05-29T03:02:37;18.85;;;10.88;;
56760;SDS011;42633;44.494;11.356;2023-05-29T03:05:41;15.18;;;10.90;;
56760;SDS011;42633;44.494;11.356;2023-05-29T03:08:49;14.57;;;9.95;;
56760;SDS011;42633;44.494;11.356;2023-05-29T03:11:57;16.33;;;10.95;;
56760;SDS011;42633;44.494;11.356;2023-05-29T03:15:14;15.07;;;10.00;;
56760;SDS011;42633;44.494;11.356;2023-05-29T03:18:19;13.27;;;11.02;;
56760;SDS011;42633;44.494;11.356;2023-05-29T03:21:32;14.55;;;10.48;;
56760;SDS011;42633;44.494;11.356;2023-05-29T03:24:36;13.27;;;10.43;;
56760;SDS011;42633;44.494;11.356;2023-05-29T03:27:45;14.98;;;10.13;;
56760;SDS011;42633;44.494;11.356;2023-05-29T03:30:58;13.05;;;10.18;;
56760;SDS011;42633;44.494;11.356;2023-05-29T03:34:08;14.80;;;10.35;;
56760;SDS011;42633;44.494;11.356;2023-05-29T03:37:16;16.20;;;9.73;;
56760;SDS011;42633;44.494;11.356;2023-05-29T03:40:24;13.20;;;10.40;;
56760;SDS011;42633;44.494;11.356;2023-05-29T03:46:33;15.27;;;10.40;;
56760;SDS011;42633;44.494;11.356;2023-05-29T03:49:38;15.57;;;10.55;;
56760;SDS011;42633;44.494;11.356;2023-05-29T03:52:43;14.00;;;10.63;;
56760;SDS011;42633;44.494;11.356;2023-05-29T03:55:47;14.35;;;11.00;;
56760;SDS011;42633;44.494;11.356;2023-05-29T03:58:54;14.63;;;10.52;;
56760;SDS011;42633;44.494;11.356;2023-05-29T04:01:59;15.77;;;10.93;;
56760;SDS011;42633;44.494;11.356;2023-05-29T04:05:07;13.38;;;10.73;;
56760;SDS011;42633;44.494;11.356;2023-05-29T04:08:17;14.18;;;10.60;;
56760;SDS011;42633;44.494;11.356;2023-05-29T04:11:23;18.95;;;10.85;;
56760;SDS011;42633;44.494;11.356;2023-05-29T04:14:28;13.82;;;10.23;;
56760;SDS011;42633;44.494;11.356;2023-05-29T04:17:37;16.10;;;10.45;;
56760;SDS011;42633;44.494;11.356;2023-05-29T04:20:43;20.67;;;10.90;;
56760;SDS011;42633;44.494;11.356;2023-05-29T04:23:54;17.27;;;11.00;;
56760;SDS011;42633;44.494;11.356;2023-05-29T04:27:03;14.25;;;10.30;;
56760;SDS011;42633;44.494;11.356;2023-05-29T04:30:08;16.45;;;9.77;;
56760;SDS011;42633;44.494;11.356;2023-05-29T04:33:20;19.58;;;11.85;;
56760;SDS011;42633;44.494;11.356;2023-05-29T04:36:30;10.98;;;9.27;;
56760;SDS011;42633;44.494;11.356;2023-05-29T04:39:53;14.93;;;9.98;;
56760;SDS011;42633;44.494;11.356;2023-05-29T04:43:04;13.60;;;10.40;;
56760;SDS011;42633;44.494;11.356;2023-05-29T04:46:26;15.70;;;10.90;;
56760;SDS011;42633;44.494;11.356;2023-05-29T04:49:33;18.48;;;11.35;;
56760;SDS011;42633;44.494;11.356;2023-05-29T04:52:38;13.82;;;10.05;;
56760;SDS011;42633;44.494;11.356;2023-05-29T04:58:53;16.25;;;10.52;;
56760;SDS011;42633;44.494;11.356;2023-05-29T05:01:59;21.70;;;10.73;;
56760;SDS011;42633;44.494;11.356;2023-05-29T05:05:10;14.23;;;10.00;;
56760;SDS011;42633;44.494;11.356;2023-05-29T05:08:18;14.90;;;10.02;;
56760;SDS011;42633;44.494;11.356;2023-05-29T05:11:23;17.98;;;10.52;;
56760;SDS011;42633;44.494;11.356;2023-05-29T05:14:27;16.70;;;9.38;;
56760;SDS011;42633;44.494;11.356;2023-05-29T05:17:35;16.13;;;10.45;;
56760;SDS011;42633;44.494;11.356;2023-05-29T05:20:43;14.85;;;9.82;;
56760;SDS011;42633;44.494;11.356;2023-05-29T05:23:56;18.02;;;10.52;;
56760;SDS011;42633;44.494;11.356;2023-05-29T05:27:03;13.80;;;9.88;;
56760;SDS011;42633;44.494;11.356;2023-05-29T05:30:11;20.50;;;11.68;;
56760;SDS011;42633;44.494;11.356;2023-05-29T05:33:22;17.05;;;10.90;;
56760;SDS011;42633;44.494;11.356;2023-05-29T05:36:38;18.85;;;10.52;;
56760;SDS011;42633;44.494;11.356;2023-05-29T05:39:50;15.25;;;10.18;;
56760;SDS011;42633;44.494;11.356;2023-05-29T05:43:00;16.92;;;11.60;;
56760;SDS011;42633;44.494;11.356;2023-05-29T05:46:29;16.00;;;11.63;;
56760;SDS011;42633;44.494;11.356;2023-05-29T05:49:42;21.58;;;12.82;;
56760;SDS011;42633;44.494;11.356;2023-05-29T05:52:57;17.88;;;13.50;;
56760;SDS011;42633;44.494;11.356;2023-05-29T05:56:13;18.27;;;13.70;;
56760;SDS011;42633;44.494;11.356;2023-05-29T05:59:24;19.90;;;13.88;;
56760;SDS011;42633;44.494;11.356;2023-05-29T06:03:13;21.50;;;14.75;;
56760;SDS011;42633;44.494;11.356;2023-05-29T06:06:39;27.38;;;16.10;;
56760;SDS011;42633;44.494;11.356;2023-05-29T06:10:08;21.38;;;14.82;;
56760;SDS011;42633;44.494;11.356;2023-05-29T06:13:24;23.50;;;15.93;;
56760;SDS011;42633;44.494;11.356;2023-05-29T06:16:55;27.73;;;14.48;;
56760;SDS011;42633;44.494;11.356;2023-05-29T06:23:53;20.10;;;14.77;;
56760;SDS011;42633;44.494;11.356;2023-05-29T06:27:48;22.35;;;15.25;;
56760;SDS011;42633;44.494;11.356;2023-05-29T06:30:56;25.50;;;15.55;;
56760;SDS011;42633;44.494;11.356;2023-05-29T06:34:13;23.90;;;14.38;;
56760;SDS011;42633;44.494;11.356;2023-05-29T06:37:28;20.88;;;15.85;;
56760;SDS011;42633;44.494;11.356;2023-05-29T06:40:44;20.48;;;15.25;;
56760;SDS011;42633;44.494;11.356;2023-05-29T06:43:51;23.58;;;15.20;;
56760;SDS011;42633;44.494;11.356;2023-05-29T06:46:58;24.77;;;15.80;;
56760;SDS011;42633;44.494;11.356;2023-05-29T06:50:14;23.15;;;15.18;;
56760;SDS011;42633;44.494;11.356;2023-05-29T06:53:22;22.80;;;15.27;;
56760;SDS011;42633;44.494;11.356;2023-05-29T17:50:20;11.30;;;5.83;;
56760;SDS011;42633;44.494;11.356;2023-05-29T17:53:24;11.05;;;5.45;;
56760;SDS011;42633;44.494;11.356;2023-05-29T17:56:30;10.48;;;6.38;;
56760;SDS011;42633;44.494;11.356;2023-05-29T18:02:41;12.35;;;6.65;;
56760;SDS011;42633;44.494;11.356;2023-05-29T18:05:45;10.10;;;6.93;;
56760;SDS011;42633;44.494;11.356;2023-05-29T18:08:51;9.18;;;6.50;;
56760;SDS011;42633;44.494;11.356;2023-05-29T18:11:55;9.77;;;6.22;;
56760;SDS011;42633;44.494;11.356;2023-05-29T18:14:59;16.48;;;6.53;;
56760;SDS011;42633;44.494;11.356;2023-05-29T18:18:03;18.05;;;6.90;;
56760;SDS011;42633;44.494;11.356;2023-05-29T18:21:08;10.43;;;5.55;;
56760;SDS011;42633;44.494;11.356;2023-05-29T18:24:12;10.95;;;7.18;;
56760;SDS011;42633;44.494;11.356;2023-05-29T18:27:16;9.13;;;6.25;;
56760;SDS011;42633;44.494;11.356;2023-05-29T18:30:20;12.35;;;6.05;;
56760;SDS011;42633;44.494;11.356;2023-05-29T18:33:24;18.73;;;9.40;;
56760;SDS011;42633;44.494;11.356;2023-05-29T18:36:28;19.38;;;8.32;;
56760;SDS011;42633;44.494;11.356;2023-05-29T18:39:33;13.35;;;6.10;;
56760;SDS011;42633;44.494;11.356;2023-05-29T18:42:38;10.13;;;5.43;;
56760;SDS011;42633;44.494;11.356;2023-05-29T18:45:42;10.45;;;5.35;;
56760;SDS011;42633;44.494;11.356;2023-05-29T18:48:46;8.95;;;5.72;;
56760;SDS011;42633;44.494;11.356;2023-05-29T18:51:51;11.63;;;7.20;;
56760;SDS011;42633;44.494;11.356;2023-05-29T18:54:55;13.02;;;6.82;;
56760;SDS011;42633;44.494;11.356;2023-05-29T18:57:59;10.65;;;7.15;;
56760;SDS011;42633;44.494;11.356;2023-05-29T19:01:06;10.63;;;6.03;;
56760;SDS011;42633;44.494;11.356;2023-05-29T19:04:10;10.00;;;6.55;;
56760;SDS011;42633;44.494;11.356;2023-05-29T19:07:15;12.07;;;6.88;;
56760;SDS011;42633;44.494;11.356;2023-05-29T19:10:20;11.73;;;7.10;;
56760;SDS011;42633;44.494;11.356;2023-05-29T19:13:25;15.10;;;8.13;;
56760;SDS011;42633;44.494;11.356;2023-05-29T19:16:30;14.32;;;7.47;;
56760;SDS011;42633;44.494;11.356;2023-05-29T19:19:34;12.20;;;7.22;;
56760;SDS011;42633;44.494;11.356;2023-05-29T19:22:51;9.20;;;7.18;;
56760;SDS011;42633;44.494;11.356;2023-05-29T19:25:56;14.98;;;8.15;;
56760;SDS011;42633;44.494;11.356;2023-05-29T19:29:00;20.60;;;10.30;;
56760;SDS011;42633;44.494;11.356;2023-05-29T19:32:06;14.65;;;7.85;;
56760;SDS011;42633;44.494;11.356;2023-05-29T19:35:11;12.88;;;8.35;;
56760;SDS011;42633;44.494;11.356;2023-05-29T19:38:16;10.38;;;6.65;;
56760;SDS011;42633;44.494;11.356;2023-05-29T19:41:20;10.43;;;8.20;;
56760;SDS011;42633;44.494;11.356;2023-05-29T19:44:24;10.43;;;6.88;;
56760;SDS011;42633;44.494;11.356;2023-05-29T19:47:28;16.02;;;9.18;;
56760;SDS011;42633;44.494;11.356;2023-05-29T19:50:35;13.70;;;7.90;;
56760;SDS011;42633;44.494;11.356;2023-05-29T19:53:40;12.90;;;7.95;;
56760;SDS011;42633;44.494;11.356;2023-05-29T19:56:44;13.60;;;7.53;;
56760;SDS011;42633;44.494;11.356;2023-05-29T19:59:49;12.05;;;7.72;;
56760;SDS011;42633;44.494;11.356;2023-05-29T20:02:57;10.68;;;7.43;;
56760;SDS011;42633;44.494;11.356;2023-05-29T20:06:02;10.27;;;6.38;;
56760;SDS011;42633;44.494;11.356;2023-05-29T20:09:07;10.82;;;6.75;;
56760;SDS011;42633;44.494;11.356;2023-05-29T20:12:12;13.90;;;7.20;;
56760;SDS011;42633;44.494;11.356;2023-05-29T20:15:16;13.77;;;7.47;;
56760;SDS011;42633;44.494;11.356;2023-05-29T20:18:21;16.40;;;8.13;;
56760;SDS011;42633;44.494;11.356;2023-05-29T20:21:26;16.67;;;11.23;;
56760;SDS011;42633;44.494;11.356;2023-05-29T20:24:31;15.02;;;7.60;;
56760;SDS011;42633;44.494;11.356;2023-05-29T20:27:36;14.73;;;10.50;;
56760;SDS011;42633;44.494;11.356;2023-05-29T20:30:40;14.00;;;9.15;;
56760;SDS011;42633;44.494;11.356;2023-05-29T20:33:44;14.88;;;8.48;;
56760;SDS011;42633;44.494;11.356;2023-05-29T20:36:51;12.75;;;7.53;;
56760;SDS011;42633;44.494;11.356;2023-05-29T20:39:57;11.05;;;6.97;;
56760;SDS011;42633;44.494;11.356;2023-05-29T20:43:04;8.55;;;6.43;;
56760;SDS011;42633;44.494;11.356;2023-05-29T20:46:09;12.57;;;7.03;;
56760;SDS011;42633;44.494;11.356;2023-05-29T20:49:14;8.77;;;7.20;;
56760;SDS011;42633;44.494;11.356;2023-05-29T20:52:19;14.10;;;8.40;;
56760;SDS011;42633;44.494;11.356;2023-05-29T20:55:24;12.65;;;7.95;;
56760;SDS011;42633;44.494;11.356;2023-05-29T20:58:29;12.20;;;6.32;;
56760;SDS011;42633;44.494;11.356;2023-05-29T21:01:34;10.50;;;6.10;;
56760;SDS011;42633;44.494;11.356;2023-05-29T21:04:39;12.05;;;6.65;;
56760;SDS011;42633;44.494;11.356;2023-05-29T21:07:43;10.00;;;6.10;;
56760;SDS011;42633;44.494;11.356;2023-05-29T21:10:47;9.32;;;5.47;;
56760;SDS011;42633;44.494;11.356;2023-05-29T21:13:57;10.57;;;6.47;;
56760;SDS011;42633;44.494;11.356;2023-05-29T21:17:03;9.30;;;6.30;;
56760;SDS011;42633;44.494;11.356;2023-05-29T21:20:08;8.75;;;6.10;;
56760;SDS011;42633;44.494;11.356;2023-05-29T21:23:13;9.85;;;6.30;;
56760;SDS011;42633;44.494;11.356;2023-05-29T21:26:18;16.13;;;7.07;;
56760;SDS011;42633;44.494;11.356;2023-05-29T21:29:23;9.77;;;7.05;;
56760;SDS011;42633;44.494;11.356;2023-05-29T21:32:27;14.23;;;6.68;;
56760;SDS011;42633;44.494;11.356;2023-05-29T21:35:31;14.02;;;7.32;;
56760;SDS011;42633;44.494;11.356;2023-05-29T21:38:35;10.27;;;6.38;;
56760;SDS011;42633;44.494;11.356;2023-05-29T21:41:39;8.48;;;6.65;;
56760;SDS011;42633;44.494;11.356;2023-05-29T21:44:44;12.65;;;7.22;;
56760;SDS011;42633;44.494;11.356;2023-05-29T21:47:49;15.50;;;7.93;;
56760;SDS011;42633;44.494;11.356;2023-05-29T21:50:53;15.10;;;7.38;;
56760;SDS011;42633;44.494;11.356;2023-05-29T21:53:58;14.68;;;8.23;;
56760;SDS011;42633;44.494;11.356;2023-05-29T21:57:03;13.02;;;6.80;;
56760;SDS011;42633;44.494;11.356;2023-05-29T22:00:08;10.60;;;6.63;;
56760;SDS011;42633;44.494;11.356;2023-05-29T22:03:13;14.77;;;6.68;;
56760;SDS011;42633;44.494;11.356;2023-05-29T22:06:17;12.70;;;7.20;;
56760;SDS011;42633;44.494;11.356;2023-05-29T22:09:22;10.70;;;7.32;;
56760;SDS011;42633;44.494;11.356;2023-05-29T22:12:29;13.48;;;7.22;;
56760;SDS011;42633;44.494;11.356;2023-05-29T22:18:40;11.38;;;7.68;;
56760;SDS011;42633;44.494;11.356;2023-05-29T22:21:46;12.93;;;8.20;;
56760;SDS011;42633;44.494;11.356;2023-05-29T22:24:51;12.55;;;8.75;;
56760;SDS011;42633;44.494;11.356;2023-05-29T22:27:56;12.75;;;8.45;;
56760;SDS011;42633;44.494;11.356;2023-05-29T22:31:01;12.57;;;7.75;;
56760;SDS011;42633;44.494;11.356;2023-05-29T22:34:05;11.77;;;7.20;;
56760;SDS011;42633;44.494;11.356;2023-05-29T22:37:10;12.25;;;7.00;;
56760;SDS011;42633;44.494;11.356;2023-05-29T22:40:15;10.98;;;7.43;;
56760;SDS011;42633;44.494;11.356;2023-05-29T22:43:20;10.48;;;8.05;;
56760;SDS011;42633;44.494;11.356;2023-05-29T22:46:25;11.00;;;7.13;;
56760;SDS011;42633;44.494;11.356;2023-05-29T22:49:29;11.50;;;6.85;;
56760;SDS011;42633;44.494;11.356;2023-05-29T22:52:34;11.13;;;7.03;;
56760;SDS011;42633;44.494;11.356;2023-05-29T22:55:39;11.13;;;6.30;;
56760;SDS011;42633;44.494;11.356;2023-05-29T22:58:44;16.27;;;6.75;;
56760;SDS011;42633;44.494;11.356;2023-05-29T23:01:48;15.13;;;7.43;;
56760;SDS011;42633;44.494;11.356;2023-05-29T23:04:53;12.95;;;6.95;;
56760;SDS011;42633;44.494;11.356;2023-05-29T23:08:01;10.90;;;6.05;;
56760;SDS011;42633;44.494;11.356;2023-05-29T23:11:07;12.43;;;6.70;;
56760;SDS011;42633;44.494;11.356;2023-05-29T23:14:12;19.05;;;7.88;;
56760;SDS011;42633;44.494;11.356;2023-05-29T23:17:15;19.70;;;7.32;;
56760;SDS011;42633;44.494;11.356;2023-05-29T23:20:21;13.27;;;6.93;;
56760;SDS011;42633;44.494;11.356;2023-05-29T23:23:25;17.35;;;7.97;;
56760;SDS011;42633;44.494;11.356;2023-05-29T23:26:30;15.75;;;7.78;;
56760;SDS011;42633;44.494;11.356;2023-05-29T23:29:34;11.68;;;7.55;;
56760;SDS011;42633;44.494;11.356;2023-05-29T23:32:39;15.88;;;7.35;;
56760;SDS011;42633;44.494;11.356;2023-05-29T23:35:44;12.80;;;6.30;;
56760;SDS011;42633;44.494;11.356;2023-05-29T23:38:48;12.75;;;6.53;;
56760;SDS011;42633;44.494;11.356;2023-05-29T23:41:52;8.55;;;6.30;;
56760;SDS011;42633;44.494;11.356;2023-05-29T23:44:56;19.52;;;7.68;;
56760;SDS011;42633;44.494;11.356;2023-05-29T23:48:01;15.68;;;8.05;;
56760;SDS011;42633;44.494;11.356;2023-05-29T23:51:05;14.25;;;8.02;;
56760;SDS011;42633;44.494;11.356;2023-05-29T23:54:09;24.48;;;8.80;;
56760;SDS011;42633;44.494;11.356;2023-05-29T23:57:13;12.75;;;7.03;;
